sensor_id;sensor_type;location;lat;lon;timestamp;P1;durP1;ratioP1;P2;durP2;ratioP2
70369;SDS011;57790;51.356;-2.906;2024-02-26T00:02:59;5.03;;;1.27;;
70369;SDS011;57790;51.356;-2.906;2024-02-26T00:05:59;5.40;;;1.10;;
70369;SDS011;57790;51.356;-2.906;2024-02-26T00:09:00;4.70;;;1.20;;
70369;SDS011;57790;51.356;-2.906;2024-02-26T00:12:03;7.05;;;1.27;;
70369;SDS011;57790;51.356;-2.906;2024-02-26T00:15:04;3.73;;;0.93;;
70369;SDS011;57790;51.356;-2.906;2024-02-26T00:18:05;6.40;;;1.02;;
70369;SDS011;57790;51.356;-2.906;2024-02-26T00:21:05;5.17;;;1.20;;
70369;SDS011;57790;51.356;-2.906;2024-02-26T00:24:06;4.72;;;1.23;;
70369;SDS011;57790;51.356;-2.906;2024-02-26T00:27:06;3.50;;;0.90;;
70369;SDS011;57790;51.356;-2.906;2024-02-26T00:30:07;5.37;;;1.00;;
70369;SDS011;57790;51.356;-2.906;2024-02-26T00:33:08;4.55;;;0.98;;
70369;SDS011;57790;51.356;-2.906;2024-02-26T00:36:08;5.40;;;1.10;;
70369;SDS011;57790;51.356;-2.906;2024-02-26T00:39:09;4.70;;;1.37;;
70369;SDS011;57790;51.356;-2.906;2024-02-26T00:42:11;3.65;;;1.10;;
70369;SDS011;57790;51.356;-2.906;2024-02-26T00:45:11;4.27;;;1.33;;
70369;SDS011;57790;51.356;-2.906;2024-02-26T00:48:12;4.78;;;1.00;;
70369;SDS011;57790;51.356;-2.906;2024-02-26T00:51:13;4.45;;;0.90;;
70369;SDS011;57790;51.356;-2.906;2024-02-26T00:54:15;3.88;;;1.10;;
70369;SDS011;57790;51.356;-2.906;2024-02-26T00:57:15;3.27;;;1.00;;
70369;SDS011;57790;51.356;-2.906;2024-02-26T01:00:16;5.20;;;0.97;;
70369;SDS011;57790;51.356;-2.906;2024-02-26T01:03:19;4.03;;;0.90;;
70369;SDS011;57790;51.356;-2.906;2024-02-26T01:06:19;5.37;;;1.03;;
70369;SDS011;57790;51.356;-2.906;2024-02-26T01:09:20;6.10;;;0.90;;
70369;SDS011;57790;51.356;-2.906;2024-02-26T01:12:20;3.35;;;0.77;;
70369;SDS011;57790;51.356;-2.906;2024-02-26T01:15:21;3.87;;;0.83;;
70369;SDS011;57790;51.356;-2.906;2024-02-26T01:18:23;4.28;;;0.80;;
70369;SDS011;57790;51.356;-2.906;2024-02-26T01:21:24;5.60;;;1.00;;
70369;SDS011;57790;51.356;-2.906;2024-02-26T01:24:26;2.70;;;0.80;;
70369;SDS011;57790;51.356;-2.906;2024-02-26T01:27:27;2.95;;;0.73;;
70369;SDS011;57790;51.356;-2.906;2024-02-26T01:30:28;3.17;;;0.90;;
70369;SDS011;57790;51.356;-2.906;2024-02-26T01:33:28;4.13;;;0.97;;
70369;SDS011;57790;51.356;-2.906;2024-02-26T01:36:29;5.10;;;0.80;;
70369;SDS011;57790;51.356;-2.906;2024-02-26T01:39:29;6.63;;;1.10;;
70369;SDS011;57790;51.356;-2.906;2024-02-26T01:42:30;2.77;;;0.63;;
70369;SDS011;57790;51.356;-2.906;2024-02-26T01:45:34;6.90;;;0.88;;
70369;SDS011;57790;51.356;-2.906;2024-02-26T01:48:34;2.67;;;0.70;;
70369;SDS011;57790;51.356;-2.906;2024-02-26T01:51:35;2.17;;;0.60;;
70369;SDS011;57790;51.356;-2.906;2024-02-26T01:54:36;3.23;;;0.80;;
70369;SDS011;57790;51.356;-2.906;2024-02-26T01:57:37;4.00;;;0.60;;
70369;SDS011;57790;51.356;-2.906;2024-02-26T02:00:38;3.43;;;0.70;;
70369;SDS011;57790;51.356;-2.906;2024-02-26T02:03:39;2.40;;;0.63;;
70369;SDS011;57790;51.356;-2.906;2024-02-26T02:06:41;6.53;;;1.00;;
70369;SDS011;57790;51.356;-2.906;2024-02-26T02:09:45;3.55;;;0.82;;
70369;SDS011;57790;51.356;-2.906;2024-02-26T02:12:45;3.03;;;0.60;;
70369;SDS011;57790;51.356;-2.906;2024-02-26T02:15:46;3.27;;;0.80;;
70369;SDS011;57790;51.356;-2.906;2024-02-26T02:18:46;3.23;;;0.60;;
70369;SDS011;57790;51.356;-2.906;2024-02-26T02:21:46;2.77;;;0.63;;
70369;SDS011;57790;51.356;-2.906;2024-02-26T02:24:47;3.50;;;0.70;;
70369;SDS011;57790;51.356;-2.906;2024-02-26T02:27:48;2.17;;;0.57;;
70369;SDS011;57790;51.356;-2.906;2024-02-26T02:30:49;3.80;;;0.60;;
70369;SDS011;57790;51.356;-2.906;2024-02-26T02:33:49;2.70;;;0.70;;
70369;SDS011;57790;51.356;-2.906;2024-02-26T02:36:53;3.33;;;0.55;;
70369;SDS011;57790;51.356;-2.906;2024-02-26T02:39:54;2.55;;;0.80;;
70369;SDS011;57790;51.356;-2.906;2024-02-26T02:42:55;2.90;;;0.40;;
70369;SDS011;57790;51.356;-2.906;2024-02-26T02:45:55;3.30;;;0.60;;
70369;SDS011;57790;51.356;-2.906;2024-02-26T02:48:55;4.03;;;0.60;;
70369;SDS011;57790;51.356;-2.906;2024-02-26T02:51:56;5.27;;;0.60;;
70369;SDS011;57790;51.356;-2.906;2024-02-26T02:54:57;2.45;;;0.65;;
70369;SDS011;57790;51.356;-2.906;2024-02-26T02:57:58;3.03;;;0.57;;
70369;SDS011;57790;51.356;-2.906;2024-02-26T03:00:58;3.87;;;0.87;;
70369;SDS011;57790;51.356;-2.906;2024-02-26T03:04:00;3.13;;;0.65;;
70369;SDS011;57790;51.356;-2.906;2024-02-26T03:07:01;3.90;;;0.67;;
70369;SDS011;57790;51.356;-2.906;2024-02-26T03:10:01;2.87;;;0.50;;
70369;SDS011;57790;51.356;-2.906;2024-02-26T03:13:02;2.97;;;0.70;;
70369;SDS011;57790;51.356;-2.906;2024-02-26T03:16:05;3.28;;;0.52;;
70369;SDS011;57790;51.356;-2.906;2024-02-26T03:19:06;3.03;;;0.60;;
70369;SDS011;57790;51.356;-2.906;2024-02-26T03:22:06;2.70;;;0.60;;
70369;SDS011;57790;51.356;-2.906;2024-02-26T03:25:07;4.10;;;0.60;;
70369;SDS011;57790;51.356;-2.906;2024-02-26T03:28:08;5.18;;;0.50;;
70369;SDS011;57790;51.356;-2.906;2024-02-26T03:31:08;2.53;;;0.60;;
70369;SDS011;57790;51.356;-2.906;2024-02-26T03:34:13;3.22;;;0.60;;
70369;SDS011;57790;51.356;-2.906;2024-02-26T03:37:14;4.22;;;0.60;;
70369;SDS011;57790;51.356;-2.906;2024-02-26T03:40:15;3.47;;;0.67;;
70369;SDS011;57790;51.356;-2.906;2024-02-26T03:43:16;3.70;;;0.50;;
70369;SDS011;57790;51.356;-2.906;2024-02-26T03:46:17;2.20;;;0.50;;
70369;SDS011;57790;51.356;-2.906;2024-02-26T03:49:17;3.50;;;0.60;;
70369;SDS011;57790;51.356;-2.906;2024-02-26T03:52:17;2.42;;;0.45;;
70369;SDS011;57790;51.356;-2.906;2024-02-26T03:55:18;4.17;;;0.80;;
70369;SDS011;57790;51.356;-2.906;2024-02-26T03:58:24;4.38;;;0.70;;
70369;SDS011;57790;51.356;-2.906;2024-02-26T04:01:25;5.03;;;0.53;;
70369;SDS011;57790;51.356;-2.906;2024-02-26T04:04:25;3.17;;;0.63;;
70369;SDS011;57790;51.356;-2.906;2024-02-26T04:07:26;2.63;;;0.63;;
70369;SDS011;57790;51.356;-2.906;2024-02-26T04:10:26;2.28;;;0.60;;
70369;SDS011;57790;51.356;-2.906;2024-02-26T04:13:26;2.97;;;0.60;;
70369;SDS011;57790;51.356;-2.906;2024-02-26T04:16:27;2.00;;;0.70;;
70369;SDS011;57790;51.356;-2.906;2024-02-26T04:19:27;4.70;;;0.73;;
70369;SDS011;57790;51.356;-2.906;2024-02-26T04:22:28;2.53;;;0.50;;
70369;SDS011;57790;51.356;-2.906;2024-02-26T04:25:28;4.27;;;0.70;;
70369;SDS011;57790;51.356;-2.906;2024-02-26T04:28:28;3.67;;;0.60;;
70369;SDS011;57790;51.356;-2.906;2024-02-26T04:31:29;3.03;;;0.70;;
70369;SDS011;57790;51.356;-2.906;2024-02-26T04:34:32;4.90;;;0.88;;
70369;SDS011;57790;51.356;-2.906;2024-02-26T04:37:33;4.47;;;0.80;;
70369;SDS011;57790;51.356;-2.906;2024-02-26T04:40:33;6.17;;;1.23;;
70369;SDS011;57790;51.356;-2.906;2024-02-26T04:43:34;4.23;;;0.93;;
70369;SDS011;57790;51.356;-2.906;2024-02-26T04:46:34;3.13;;;0.93;;
70369;SDS011;57790;51.356;-2.906;2024-02-26T04:49:34;3.40;;;0.80;;
70369;SDS011;57790;51.356;-2.906;2024-02-26T04:52:35;4.93;;;0.70;;
70369;SDS011;57790;51.356;-2.906;2024-02-26T04:55:36;4.57;;;0.82;;
70369;SDS011;57790;51.356;-2.906;2024-02-26T04:58:36;7.07;;;1.17;;
70369;SDS011;57790;51.356;-2.906;2024-02-26T05:01:37;5.17;;;1.07;;
70369;SDS011;57790;51.356;-2.906;2024-02-26T05:04:37;4.67;;;0.80;;
70369;SDS011;57790;51.356;-2.906;2024-02-26T05:07:41;3.77;;;0.97;;
70369;SDS011;57790;51.356;-2.906;2024-02-26T05:10:42;4.03;;;0.90;;
70369;SDS011;57790;51.356;-2.906;2024-02-26T05:13:43;4.90;;;1.00;;
70369;SDS011;57790;51.356;-2.906;2024-02-26T05:16:45;4.85;;;1.00;;
70369;SDS011;57790;51.356;-2.906;2024-02-26T05:19:45;3.30;;;0.83;;
70369;SDS011;57790;51.356;-2.906;2024-02-26T05:22:46;2.87;;;0.80;;
70369;SDS011;57790;51.356;-2.906;2024-02-26T05:25:48;5.03;;;0.90;;
70369;SDS011;57790;51.356;-2.906;2024-02-26T05:28:49;7.07;;;1.10;;
70369;SDS011;57790;51.356;-2.906;2024-02-26T05:31:50;5.50;;;1.10;;
70369;SDS011;57790;51.356;-2.906;2024-02-26T05:34:53;4.73;;;0.70;;
70369;SDS011;57790;51.356;-2.906;2024-02-26T05:37:54;4.45;;;0.90;;
70369;SDS011;57790;51.356;-2.906;2024-02-26T05:40:54;3.50;;;0.80;;
70369;SDS011;57790;51.356;-2.906;2024-02-26T05:43:54;3.40;;;0.80;;
70369;SDS011;57790;51.356;-2.906;2024-02-26T05:46:55;5.13;;;0.93;;
70369;SDS011;57790;51.356;-2.906;2024-02-26T05:49:56;3.58;;;0.70;;
70369;SDS011;57790;51.356;-2.906;2024-02-26T05:52:58;5.40;;;0.90;;
70369;SDS011;57790;51.356;-2.906;2024-02-26T05:55:59;3.97;;;0.80;;
70369;SDS011;57790;51.356;-2.906;2024-02-26T05:58:59;6.13;;;0.70;;
70369;SDS011;57790;51.356;-2.906;2024-02-26T06:01:59;3.63;;;0.70;;
70369;SDS011;57790;51.356;-2.906;2024-02-26T06:05:00;4.97;;;0.80;;
70369;SDS011;57790;51.356;-2.906;2024-02-26T06:08:00;2.40;;;0.70;;
70369;SDS011;57790;51.356;-2.906;2024-02-26T06:11:04;3.07;;;0.70;;
70369;SDS011;57790;51.356;-2.906;2024-02-26T06:14:06;4.72;;;0.77;;
70369;SDS011;57790;51.356;-2.906;2024-02-26T06:17:06;2.63;;;0.60;;
70369;SDS011;57790;51.356;-2.906;2024-02-26T06:20:07;5.53;;;0.77;;
70369;SDS011;57790;51.356;-2.906;2024-02-26T06:23:11;3.67;;;0.60;;
70369;SDS011;57790;51.356;-2.906;2024-02-26T06:26:12;4.53;;;0.50;;
70369;SDS011;57790;51.356;-2.906;2024-02-26T06:29:12;3.57;;;0.77;;
70369;SDS011;57790;51.356;-2.906;2024-02-26T06:32:13;2.30;;;0.50;;
70369;SDS011;57790;51.356;-2.906;2024-02-26T06:35:14;2.75;;;0.65;;
70369;SDS011;57790;51.356;-2.906;2024-02-26T06:38:14;1.53;;;0.40;;
70369;SDS011;57790;51.356;-2.906;2024-02-26T06:41:15;3.30;;;0.47;;
70369;SDS011;57790;51.356;-2.906;2024-02-26T06:44:15;4.27;;;0.80;;
70369;SDS011;57790;51.356;-2.906;2024-02-26T06:47:16;1.97;;;0.70;;
70369;SDS011;57790;51.356;-2.906;2024-02-26T06:50:16;3.67;;;0.70;;
70369;SDS011;57790;51.356;-2.906;2024-02-26T06:53:16;3.67;;;0.43;;
70369;SDS011;57790;51.356;-2.906;2024-02-26T06:56:17;3.17;;;0.63;;
70369;SDS011;57790;51.356;-2.906;2024-02-26T06:59:17;2.78;;;0.50;;
70369;SDS011;57790;51.356;-2.906;2024-02-26T07:02:19;3.40;;;0.53;;
70369;SDS011;57790;51.356;-2.906;2024-02-26T07:05:20;4.33;;;0.63;;
70369;SDS011;57790;51.356;-2.906;2024-02-26T07:08:20;4.77;;;0.60;;
70369;SDS011;57790;51.356;-2.906;2024-02-26T07:11:21;3.37;;;0.60;;
70369;SDS011;57790;51.356;-2.906;2024-02-26T07:14:21;3.43;;;0.53;;
70369;SDS011;57790;51.356;-2.906;2024-02-26T07:17:22;1.77;;;0.50;;
70369;SDS011;57790;51.356;-2.906;2024-02-26T07:20:22;5.17;;;0.70;;
70369;SDS011;57790;51.356;-2.906;2024-02-26T07:23:24;4.32;;;0.57;;
70369;SDS011;57790;51.356;-2.906;2024-02-26T07:26:25;2.33;;;0.53;;
70369;SDS011;57790;51.356;-2.906;2024-02-26T07:29:26;6.38;;;0.68;;
70369;SDS011;57790;51.356;-2.906;2024-02-26T07:32:26;7.03;;;0.73;;
70369;SDS011;57790;51.356;-2.906;2024-02-26T07:35:26;4.47;;;0.97;;
70369;SDS011;57790;51.356;-2.906;2024-02-26T07:38:28;3.60;;;0.90;;
70369;SDS011;57790;51.356;-2.906;2024-02-26T07:41:28;4.33;;;0.70;;
70369;SDS011;57790;51.356;-2.906;2024-02-26T07:44:29;6.77;;;0.90;;
70369;SDS011;57790;51.356;-2.906;2024-02-26T07:47:29;5.73;;;0.93;;
70369;SDS011;57790;51.356;-2.906;2024-02-26T07:50:29;2.87;;;0.70;;
70369;SDS011;57790;51.356;-2.906;2024-02-26T07:53:30;6.45;;;0.90;;
70369;SDS011;57790;51.356;-2.906;2024-02-26T07:56:30;4.60;;;0.90;;
70369;SDS011;57790;51.356;-2.906;2024-02-26T07:59:31;3.83;;;0.97;;
70369;SDS011;57790;51.356;-2.906;2024-02-26T08:02:32;4.78;;;0.93;;
70369;SDS011;57790;51.356;-2.906;2024-02-26T08:05:32;3.63;;;0.90;;
70369;SDS011;57790;51.356;-2.906;2024-02-26T08:08:32;4.00;;;1.00;;
70369;SDS011;57790;51.356;-2.906;2024-02-26T08:11:33;5.13;;;0.90;;
70369;SDS011;57790;51.356;-2.906;2024-02-26T08:14:33;5.47;;;1.00;;
70369;SDS011;57790;51.356;-2.906;2024-02-26T08:17:33;4.20;;;0.97;;
70369;SDS011;57790;51.356;-2.906;2024-02-26T08:20:34;5.18;;;1.17;;
70369;SDS011;57790;51.356;-2.906;2024-02-26T08:23:34;4.90;;;1.20;;
70369;SDS011;57790;51.356;-2.906;2024-02-26T08:26:35;5.23;;;0.97;;
70369;SDS011;57790;51.356;-2.906;2024-02-26T08:29:35;4.15;;;1.05;;
70369;SDS011;57790;51.356;-2.906;2024-02-26T08:32:36;5.27;;;1.50;;
70369;SDS011;57790;51.356;-2.906;2024-02-26T08:35:36;6.60;;;1.70;;
70369;SDS011;57790;51.356;-2.906;2024-02-26T08:38:37;5.30;;;1.47;;
70369;SDS011;57790;51.356;-2.906;2024-02-26T08:41:37;6.03;;;1.40;;
70369;SDS011;57790;51.356;-2.906;2024-02-26T08:44:37;3.97;;;1.40;;
70369;SDS011;57790;51.356;-2.906;2024-02-26T08:47:38;5.43;;;1.33;;
70369;SDS011;57790;51.356;-2.906;2024-02-26T08:50:38;3.97;;;1.20;;
70369;SDS011;57790;51.356;-2.906;2024-02-26T08:53:39;5.57;;;1.50;;
70369;SDS011;57790;51.356;-2.906;2024-02-26T08:56:39;6.13;;;1.27;;
70369;SDS011;57790;51.356;-2.906;2024-02-26T08:59:40;6.80;;;1.10;;
70369;SDS011;57790;51.356;-2.906;2024-02-26T09:02:40;5.93;;;1.30;;
70369;SDS011;57790;51.356;-2.906;2024-02-26T09:05:42;7.28;;;1.35;;
70369;SDS011;57790;51.356;-2.906;2024-02-26T09:08:43;5.33;;;1.33;;
70369;SDS011;57790;51.356;-2.906;2024-02-26T09:11:43;5.53;;;1.00;;
70369;SDS011;57790;51.356;-2.906;2024-02-26T09:14:43;4.47;;;1.00;;
70369;SDS011;57790;51.356;-2.906;2024-02-26T09:17:44;5.30;;;1.40;;
70369;SDS011;57790;51.356;-2.906;2024-02-26T09:20:45;6.13;;;1.30;;
70369;SDS011;57790;51.356;-2.906;2024-02-26T09:23:45;6.10;;;1.20;;
70369;SDS011;57790;51.356;-2.906;2024-02-26T09:26:46;5.63;;;1.33;;
70369;SDS011;57790;51.356;-2.906;2024-02-26T09:29:46;4.90;;;1.10;;
70369;SDS011;57790;51.356;-2.906;2024-02-26T09:32:47;5.07;;;1.07;;
70369;SDS011;57790;51.356;-2.906;2024-02-26T09:35:48;5.30;;;1.20;;
70369;SDS011;57790;51.356;-2.906;2024-02-26T09:38:49;7.30;;;1.60;;
70369;SDS011;57790;51.356;-2.906;2024-02-26T09:41:49;4.17;;;0.83;;
70369;SDS011;57790;51.356;-2.906;2024-02-26T09:44:50;8.40;;;1.07;;
70369;SDS011;57790;51.356;-2.906;2024-02-26T09:47:55;4.82;;;0.90;;
70369;SDS011;57790;51.356;-2.906;2024-02-26T09:50:56;4.22;;;1.00;;
70369;SDS011;57790;51.356;-2.906;2024-02-26T09:53:56;5.00;;;1.00;;
70369;SDS011;57790;51.356;-2.906;2024-02-26T09:57:02;4.68;;;0.90;;
70369;SDS011;57790;51.356;-2.906;2024-02-26T10:00:09;3.75;;;0.77;;
70369;SDS011;57790;51.356;-2.906;2024-02-26T10:03:15;5.50;;;0.98;;
70369;SDS011;57790;51.356;-2.906;2024-02-26T10:06:18;5.73;;;1.00;;
70369;SDS011;57790;51.356;-2.906;2024-02-26T10:09:19;5.00;;;1.10;;
70369;SDS011;57790;51.356;-2.906;2024-02-26T10:12:20;4.20;;;0.82;;
70369;SDS011;57790;51.356;-2.906;2024-02-26T10:15:21;5.10;;;0.82;;
70369;SDS011;57790;51.356;-2.906;2024-02-26T10:18:25;2.80;;;0.83;;
70369;SDS011;57790;51.356;-2.906;2024-02-26T10:21:25;3.25;;;0.73;;
70369;SDS011;57790;51.356;-2.906;2024-02-26T10:24:26;5.73;;;1.20;;
70369;SDS011;57790;51.356;-2.906;2024-02-26T10:27:27;3.43;;;0.90;;
70369;SDS011;57790;51.356;-2.906;2024-02-26T10:30:28;3.25;;;1.10;;
70369;SDS011;57790;51.356;-2.906;2024-02-26T10:33:29;3.33;;;0.70;;
70369;SDS011;57790;51.356;-2.906;2024-02-26T10:36:29;3.47;;;0.87;;
70369;SDS011;57790;51.356;-2.906;2024-02-26T10:39:35;4.00;;;0.65;;
70369;SDS011;57790;51.356;-2.906;2024-02-26T10:42:36;2.13;;;0.75;;
70369;SDS011;57790;51.356;-2.906;2024-02-26T10:45:38;1.90;;;0.55;;
70369;SDS011;57790;51.356;-2.906;2024-02-26T10:48:48;5.17;;;0.80;;
70369;SDS011;57790;51.356;-2.906;2024-02-26T10:51:54;2.92;;;0.60;;
70369;SDS011;57790;51.356;-2.906;2024-02-26T10:55:02;2.75;;;0.70;;
70369;SDS011;57790;51.356;-2.906;2024-02-26T10:58:04;3.15;;;0.60;;
70369;SDS011;57790;51.356;-2.906;2024-02-26T11:01:08;5.07;;;0.70;;
70369;SDS011;57790;51.356;-2.906;2024-02-26T11:04:09;3.73;;;0.60;;
70369;SDS011;57790;51.356;-2.906;2024-02-26T11:07:10;3.78;;;0.75;;
70369;SDS011;57790;51.356;-2.906;2024-02-26T11:10:12;3.28;;;0.70;;
70369;SDS011;57790;51.356;-2.906;2024-02-26T11:13:13;3.83;;;0.80;;
70369;SDS011;57790;51.356;-2.906;2024-02-26T11:16:16;3.67;;;0.77;;
70369;SDS011;57790;51.356;-2.906;2024-02-26T11:19:18;6.45;;;0.90;;
70369;SDS011;57790;51.356;-2.906;2024-02-26T11:22:19;7.60;;;1.20;;
70369;SDS011;57790;51.356;-2.906;2024-02-26T11:25:21;3.53;;;0.77;;
70369;SDS011;57790;51.356;-2.906;2024-02-26T11:28:23;4.07;;;0.83;;
70369;SDS011;57790;51.356;-2.906;2024-02-26T11:31:25;5.18;;;0.80;;
70369;SDS011;57790;51.356;-2.906;2024-02-26T11:34:27;3.97;;;0.70;;
70369;SDS011;57790;51.356;-2.906;2024-02-26T11:37:28;3.85;;;0.80;;
70369;SDS011;57790;51.356;-2.906;2024-02-26T11:40:29;2.93;;;0.83;;
70369;SDS011;57790;51.356;-2.906;2024-02-26T11:43:50;4.35;;;1.00;;
70369;SDS011;57790;51.356;-2.906;2024-02-26T11:47:09;4.60;;;0.80;;
70369;SDS011;57790;51.356;-2.906;2024-02-26T11:53:36;2.60;;;0.73;;
70369;SDS011;57790;51.356;-2.906;2024-02-26T11:56:48;4.65;;;1.00;;
70369;SDS011;57790;51.356;-2.906;2024-02-26T11:59:50;4.45;;;0.90;;
70369;SDS011;57790;51.356;-2.906;2024-02-26T12:02:52;3.73;;;0.90;;
70369;SDS011;57790;51.356;-2.906;2024-02-26T12:06:05;3.47;;;0.70;;
70369;SDS011;57790;51.356;-2.906;2024-02-26T12:09:07;4.43;;;0.85;;
70369;SDS011;57790;51.356;-2.906;2024-02-26T12:12:09;5.03;;;0.90;;
70369;SDS011;57790;51.356;-2.906;2024-02-26T12:15:10;3.13;;;0.70;;
70369;SDS011;57790;51.356;-2.906;2024-02-26T12:18:16;3.53;;;0.70;;
70369;SDS011;57790;51.356;-2.906;2024-02-26T12:21:17;5.47;;;0.90;;
70369;SDS011;57790;51.356;-2.906;2024-02-26T12:24:19;2.67;;;0.57;;
70369;SDS011;57790;51.356;-2.906;2024-02-26T12:27:20;2.85;;;0.50;;
70369;SDS011;57790;51.356;-2.906;2024-02-26T12:30:21;3.20;;;0.70;;
70369;SDS011;57790;51.356;-2.906;2024-02-26T12:33:22;2.70;;;0.70;;
70369;SDS011;57790;51.356;-2.906;2024-02-26T12:36:22;3.30;;;0.80;;
70369;SDS011;57790;51.356;-2.906;2024-02-26T12:39:23;5.17;;;0.60;;
70369;SDS011;57790;51.356;-2.906;2024-02-26T12:42:24;3.63;;;0.60;;
70369;SDS011;57790;51.356;-2.906;2024-02-26T12:45:25;3.10;;;0.57;;
70369;SDS011;57790;51.356;-2.906;2024-02-26T12:48:26;3.13;;;0.50;;
70369;SDS011;57790;51.356;-2.906;2024-02-26T12:51:26;5.30;;;0.77;;
70369;SDS011;57790;51.356;-2.906;2024-02-26T12:54:27;6.13;;;0.60;;
70369;SDS011;57790;51.356;-2.906;2024-02-26T12:57:30;3.87;;;0.60;;
70369;SDS011;57790;51.356;-2.906;2024-02-26T13:00:32;4.40;;;0.73;;
70369;SDS011;57790;51.356;-2.906;2024-02-26T13:03:33;3.13;;;0.60;;
70369;SDS011;57790;51.356;-2.906;2024-02-26T13:06:35;5.27;;;0.60;;
70369;SDS011;57790;51.356;-2.906;2024-02-26T13:09:36;4.60;;;0.70;;
70369;SDS011;57790;51.356;-2.906;2024-02-26T13:12:37;3.00;;;0.60;;
70369;SDS011;57790;51.356;-2.906;2024-02-26T13:15:41;1.33;;;0.40;;
70369;SDS011;57790;51.356;-2.906;2024-02-26T13:18:42;2.37;;;0.70;;
70369;SDS011;57790;51.356;-2.906;2024-02-26T13:21:42;3.50;;;0.80;;
70369;SDS011;57790;51.356;-2.906;2024-02-26T13:24:43;2.13;;;0.70;;
70369;SDS011;57790;51.356;-2.906;2024-02-26T13:27:43;1.67;;;0.60;;
70369;SDS011;57790;51.356;-2.906;2024-02-26T13:30:56;6.00;;;0.70;;
70369;SDS011;57790;51.356;-2.906;2024-02-26T13:33:58;2.08;;;0.63;;
70369;SDS011;57790;51.356;-2.906;2024-02-26T13:36:58;2.93;;;0.60;;
70369;SDS011;57790;51.356;-2.906;2024-02-26T13:39:58;1.73;;;0.63;;
70369;SDS011;57790;51.356;-2.906;2024-02-26T13:42:59;2.57;;;0.73;;
70369;SDS011;57790;51.356;-2.906;2024-02-26T13:45:59;4.13;;;0.60;;
70369;SDS011;57790;51.356;-2.906;2024-02-26T13:49:00;2.73;;;0.67;;
70369;SDS011;57790;51.356;-2.906;2024-02-26T13:52:00;2.63;;;0.40;;
70369;SDS011;57790;51.356;-2.906;2024-02-26T13:55:01;3.07;;;0.70;;
70369;SDS011;57790;51.356;-2.906;2024-02-26T13:58:02;5.05;;;0.70;;
70369;SDS011;57790;51.356;-2.906;2024-02-26T14:01:02;3.50;;;0.70;;
70369;SDS011;57790;51.356;-2.906;2024-02-26T14:04:03;2.95;;;0.60;;
70369;SDS011;57790;51.356;-2.906;2024-02-26T14:07:04;1.92;;;0.55;;
70369;SDS011;57790;51.356;-2.906;2024-02-26T14:10:05;2.70;;;0.60;;
70369;SDS011;57790;51.356;-2.906;2024-02-26T14:13:06;2.78;;;0.55;;
70369;SDS011;57790;51.356;-2.906;2024-02-26T14:16:07;2.87;;;0.60;;
70369;SDS011;57790;51.356;-2.906;2024-02-26T14:19:07;2.03;;;0.60;;
70369;SDS011;57790;51.356;-2.906;2024-02-26T14:22:07;2.80;;;0.70;;
70369;SDS011;57790;51.356;-2.906;2024-02-26T14:25:08;3.23;;;0.60;;
70369;SDS011;57790;51.356;-2.906;2024-02-26T14:28:09;3.70;;;0.50;;
70369;SDS011;57790;51.356;-2.906;2024-02-26T14:31:09;2.40;;;0.47;;
70369;SDS011;57790;51.356;-2.906;2024-02-26T14:34:10;3.35;;;0.65;;
70369;SDS011;57790;51.356;-2.906;2024-02-26T14:37:10;3.03;;;0.60;;
70369;SDS011;57790;51.356;-2.906;2024-02-26T14:40:11;2.77;;;0.50;;
70369;SDS011;57790;51.356;-2.906;2024-02-26T14:43:12;2.17;;;0.60;;
70369;SDS011;57790;51.356;-2.906;2024-02-26T14:46:12;3.93;;;0.70;;
70369;SDS011;57790;51.356;-2.906;2024-02-26T14:49:12;2.17;;;0.50;;
70369;SDS011;57790;51.356;-2.906;2024-02-26T14:52:13;2.43;;;0.70;;
70369;SDS011;57790;51.356;-2.906;2024-02-26T14:55:14;3.00;;;0.60;;
70369;SDS011;57790;51.356;-2.906;2024-02-26T14:58:15;2.83;;;0.57;;
70369;SDS011;57790;51.356;-2.906;2024-02-26T15:01:16;2.45;;;0.50;;
70369;SDS011;57790;51.356;-2.906;2024-02-26T15:04:16;2.73;;;0.60;;
70369;SDS011;57790;51.356;-2.906;2024-02-26T15:07:17;2.07;;;0.50;;
70369;SDS011;57790;51.356;-2.906;2024-02-26T15:10:19;3.10;;;0.68;;
70369;SDS011;57790;51.356;-2.906;2024-02-26T15:13:20;2.63;;;0.70;;
70369;SDS011;57790;51.356;-2.906;2024-02-26T15:16:20;3.43;;;0.70;;
70369;SDS011;57790;51.356;-2.906;2024-02-26T15:19:21;3.43;;;0.50;;
70369;SDS011;57790;51.356;-2.906;2024-02-26T15:22:21;2.50;;;0.77;;
70369;SDS011;57790;51.356;-2.906;2024-02-26T15:25:21;3.03;;;0.60;;
70369;SDS011;57790;51.356;-2.906;2024-02-26T15:28:22;2.87;;;0.80;;
70369;SDS011;57790;51.356;-2.906;2024-02-26T15:31:22;3.60;;;0.60;;
70369;SDS011;57790;51.356;-2.906;2024-02-26T15:34:23;3.25;;;0.63;;
70369;SDS011;57790;51.356;-2.906;2024-02-26T15:37:23;4.67;;;0.63;;
70369;SDS011;57790;51.356;-2.906;2024-02-26T15:40:24;3.83;;;0.80;;
70369;SDS011;57790;51.356;-2.906;2024-02-26T15:43:25;4.78;;;0.73;;
70369;SDS011;57790;51.356;-2.906;2024-02-26T15:46:25;4.53;;;0.90;;
70369;SDS011;57790;51.356;-2.906;2024-02-26T15:49:26;3.35;;;0.70;;
70369;SDS011;57790;51.356;-2.906;2024-02-26T15:52:26;2.90;;;0.67;;
70369;SDS011;57790;51.356;-2.906;2024-02-26T15:55:28;3.45;;;0.77;;
70369;SDS011;57790;51.356;-2.906;2024-02-26T15:58:29;4.07;;;0.80;;
70369;SDS011;57790;51.356;-2.906;2024-02-26T16:01:30;3.37;;;0.60;;
70369;SDS011;57790;51.356;-2.906;2024-02-26T16:04:30;2.05;;;0.60;;
70369;SDS011;57790;51.356;-2.906;2024-02-26T16:07:32;3.20;;;0.63;;
70369;SDS011;57790;51.356;-2.906;2024-02-26T16:10:36;4.37;;;0.77;;
70369;SDS011;57790;51.356;-2.906;2024-02-26T16:13:37;3.28;;;0.70;;
70369;SDS011;57790;51.356;-2.906;2024-02-26T16:16:39;4.63;;;0.60;;
70369;SDS011;57790;51.356;-2.906;2024-02-26T16:19:44;3.40;;;0.60;;
70369;SDS011;57790;51.356;-2.906;2024-02-26T16:22:45;2.73;;;0.50;;
70369;SDS011;57790;51.356;-2.906;2024-02-26T16:25:48;3.30;;;0.63;;
70369;SDS011;57790;51.356;-2.906;2024-02-26T16:28:49;2.40;;;0.50;;
70369;SDS011;57790;51.356;-2.906;2024-02-26T16:31:49;3.57;;;0.50;;
70369;SDS011;57790;51.356;-2.906;2024-02-26T16:34:49;7.00;;;1.10;;
70369;SDS011;57790;51.356;-2.906;2024-02-26T16:37:50;8.57;;;1.90;;
70369;SDS011;57790;51.356;-2.906;2024-02-26T16:40:50;6.68;;;1.30;;
70369;SDS011;57790;51.356;-2.906;2024-02-26T16:43:51;6.77;;;1.47;;
70369;SDS011;57790;51.356;-2.906;2024-02-26T16:46:51;6.13;;;1.10;;
70369;SDS011;57790;51.356;-2.906;2024-02-26T16:49:51;5.23;;;0.93;;
70369;SDS011;57790;51.356;-2.906;2024-02-26T16:52:52;7.70;;;1.77;;
70369;SDS011;57790;51.356;-2.906;2024-02-26T16:55:52;8.40;;;2.00;;
70369;SDS011;57790;51.356;-2.906;2024-02-26T16:58:53;10.05;;;2.60;;
70369;SDS011;57790;51.356;-2.906;2024-02-26T17:01:54;7.53;;;2.00;;
70369;SDS011;57790;51.356;-2.906;2024-02-26T17:04:55;6.47;;;1.35;;
70369;SDS011;57790;51.356;-2.906;2024-02-26T17:07:55;7.87;;;1.57;;
70369;SDS011;57790;51.356;-2.906;2024-02-26T17:10:56;10.10;;;2.40;;
70369;SDS011;57790;51.356;-2.906;2024-02-26T17:13:56;12.37;;;3.37;;
70369;SDS011;57790;51.356;-2.906;2024-02-26T17:16:57;7.00;;;1.90;;
70369;SDS011;57790;51.356;-2.906;2024-02-26T17:20:01;6.93;;;1.38;;
70369;SDS011;57790;51.356;-2.906;2024-02-26T17:23:02;5.38;;;1.00;;
70369;SDS011;57790;51.356;-2.906;2024-02-26T17:26:03;5.60;;;1.00;;
70369;SDS011;57790;51.356;-2.906;2024-02-26T17:29:06;4.72;;;1.08;;
70369;SDS011;57790;51.356;-2.906;2024-02-26T17:32:08;3.85;;;0.90;;
70369;SDS011;57790;51.356;-2.906;2024-02-26T17:35:09;3.80;;;0.87;;
70369;SDS011;57790;51.356;-2.906;2024-02-26T17:38:14;4.03;;;0.93;;
70369;SDS011;57790;51.356;-2.906;2024-02-26T17:41:14;5.37;;;0.87;;
70369;SDS011;57790;51.356;-2.906;2024-02-26T17:44:15;4.13;;;0.85;;
70369;SDS011;57790;51.356;-2.906;2024-02-26T17:47:15;2.20;;;0.40;;
70369;SDS011;57790;51.356;-2.906;2024-02-26T17:50:16;2.97;;;0.60;;
70369;SDS011;57790;51.356;-2.906;2024-02-26T17:53:16;2.08;;;0.60;;
70369;SDS011;57790;51.356;-2.906;2024-02-26T17:56:18;2.00;;;0.60;;
70369;SDS011;57790;51.356;-2.906;2024-02-26T17:59:18;3.97;;;0.75;;